Time;durP1;ratioP1;P1;durP2;ratioP2;P2;SDS_P1;SDS_P2;PMS_P1;PMS_P2;Temp;Humidity;BMP_temperature;BMP_pressure;BME280_temperature;BME280_humidity;BME280_pressure;Samples;Min_cycle;Max_cycle;Signal;HPM_P1;HPM_P2
2023/07/16 00:00:04;;;;;;;3.70;2.17;;;;;;;-148.88;100.00;-17125.47;4996046;28;20054;-83
2023/07/16 00:02:30;;;;;;;3.60;1.98;;;;;;;-148.88;100.00;-17125.47;4996552;28;20508;-83
2023/07/16 00:04:55;;;;;;;3.95;2.22;;;;;;;-148.88;100.00;-17125.47;4996162;28;20129;-83
2023/07/16 00:07:20;;;;;;;2.95;1.70;;;;;;;-148.88;100.00;-17125.47;4997253;28;20093;-83
2023/07/16 00:09:46;;;;;;;6.00;2.40;;;;;;;-148.88;100.00;-17125.47;4996914;28;20030;-82
2023/07/16 00:12:11;;;;;;;5.22;2.20;;;;;;;-148.88;100.00;-17125.47;4994896;28;20034;-83
2023/07/16 00:14:36;;;;;;;6.00;2.25;;;;;;;-148.88;100.00;-17125.47;4996327;28;20050;-82
2023/07/16 00:17:02;;;;;;;4.32;2.20;;;;;;;-148.88;100.00;-17125.47;4994561;28;20085;-83
2023/07/16 00:19:27;;;;;;;3.17;1.95;;;;;;;-148.88;100.00;-17125.47;4994629;28;20053;-83
2023/07/16 00:21:53;;;;;;;3.92;2.17;;;;;;;-148.88;100.00;-17125.47;4995717;28;20069;-83
2023/07/16 00:24:18;;;;;;;4.15;2.20;;;;;;;-148.88;100.00;-17125.47;4995276;28;20034;-83
2023/07/16 00:26:43;;;;;;;4.55;2.10;;;;;;;-148.88;100.00;-17125.47;4993450;28;20031;-83
2023/07/16 00:29:09;;;;;;;4.15;2.00;;;;;;;-148.88;100.00;-17125.47;4995559;28;20122;-83
2023/07/16 00:31:34;;;;;;;3.75;1.98;;;;;;;-148.88;100.00;-17125.47;4997849;28;20078;-84
2023/07/16 00:33:59;;;;;;;4.28;2.10;;;;;;;-148.88;100.00;-17125.47;5004720;28;20081;-83
2023/07/16 00:36:25;;;;;;;6.50;2.35;;;;;;;-148.88;100.00;-17125.47;5003847;28;20053;-83
2023/07/16 00:38:50;;;;;;;3.78;2.10;;;;;;;-148.88;100.00;-17125.47;5003243;28;20027;-83
2023/07/16 00:41:16;;;;;;;2.95;1.77;;;;;;;-148.88;100.00;-17125.47;5000736;28;20029;-83
2023/07/16 00:43:41;;;;;;;4.55;2.20;;;;;;;-148.88;100.00;-17125.47;5002840;28;20037;-84
2023/07/16 00:46:08;;;;;;;4.43;2.05;;;;;;;-148.88;100.00;-17125.47;5003086;28;20027;-83
2023/07/16 00:48:33;;;;;;;4.85;2.47;;;;;;;-148.88;100.00;-17125.47;5001220;28;20034;-82
2023/07/16 00:51:01;;;;;;;3.33;2.17;;;;;;;-148.88;100.00;-17125.47;4998199;28;20022;-83
2023/07/16 00:53:27;;;;;;;6.00;2.28;;;;;;;-148.88;100.00;-17125.47;4999244;28;20018;-81
2023/07/16 00:55:52;;;;;;;3.17;2.25;;;;;;;-148.88;100.00;-17125.47;4999060;28;20510;-82
2023/07/16 00:58:18;;;;;;;3.58;2.15;;;;;;;-148.88;100.00;-17125.47;4999468;28;20448;-83
2023/07/16 01:00:43;;;;;;;4.20;2.67;;;;;;;-148.88;100.00;-17125.47;4998392;28;20101;-81
2023/07/16 01:03:12;;;;;;;4.13;2.45;;;;;;;-148.88;100.00;-17125.47;4997272;28;20105;-83
2023/07/16 01:05:47;;;;;;;4.30;2.67;;;;;;;-148.88;100.00;-17125.47;4997728;28;20034;-83
2023/07/16 01:08:18;;;;;;;5.18;2.30;;;;;;;-148.88;100.00;-17125.47;4998562;28;20410;-83
2023/07/16 01:10:44;;;;;;;4.85;2.45;;;;;;;-148.88;100.00;-17125.47;4998545;28;20500;-83
2023/07/16 01:13:09;;;;;;;3.33;1.95;;;;;;;-148.88;100.00;-17125.47;4998335;28;20034;-83
2023/07/16 01:15:34;;;;;;;5.18;2.72;;;;;;;-148.88;100.00;-17125.47;5000016;28;20031;-83
2023/07/16 01:18:00;;;;;;;5.70;2.35;;;;;;;-148.88;100.00;-17125.47;5001145;28;20023;-83
2023/07/16 01:20:28;;;;;;;4.28;2.65;;;;;;;-148.88;100.00;-17125.47;4999723;28;20018;-83
2023/07/16 01:23:27;;;;;;;4.75;2.13;;;;;;;-148.88;100.00;-17125.47;5001555;28;20532;-81
2023/07/16 01:26:40;;;;;;;4.47;2.22;;;;;;;-148.88;100.00;-17125.47;5000785;28;20034;-83
2023/07/16 01:29:05;;;;;;;3.83;2.20;;;;;;;-148.88;100.00;-17125.47;4999952;28;20069;-82
2023/07/16 01:31:32;;;;;;;4.40;2.50;;;;;;;-148.88;100.00;-17125.47;5000093;28;20026;-83
2023/07/16 01:33:59;;;;;;;3.50;2.30;;;;;;;-148.88;100.00;-17125.47;4998700;28;20033;-82
2023/07/16 01:36:26;;;;;;;4.10;2.10;;;;;;;-148.88;100.00;-17125.47;4998919;28;20026;-82
2023/07/16 01:38:52;;;;;;;4.05;2.33;;;;;;;-148.88;100.00;-17125.47;4999367;28;20088;-82
2023/07/16 01:41:18;;;;;;;3.67;2.20;;;;;;;-148.88;100.00;-17125.47;4998445;28;20026;-83
2023/07/16 01:43:43;;;;;;;6.22;2.60;;;;;;;-148.88;100.00;-17125.47;4999920;28;20018;-83
2023/07/16 01:46:09;;;;;;;5.72;2.20;;;;;;;-148.88;100.00;-17125.47;4997275;28;20077;-83
2023/07/16 01:48:36;;;;;;;4.60;2.15;;;;;;;-148.88;100.00;-17125.47;4996929;28;20022;-84
2023/07/16 01:51:03;;;;;;;4.72;2.40;;;;;;;-148.88;100.00;-17125.47;4997051;28;20065;-83
2023/07/16 01:53:28;;;;;;;3.88;2.28;;;;;;;-148.88;100.00;-17125.47;4997516;28;20412;-81
2023/07/16 01:55:53;;;;;;;3.85;1.98;;;;;;;-148.88;100.00;-17125.47;4998186;28;20121;-83
2023/07/16 01:58:19;;;;;;;3.67;2.33;;;;;;;-148.88;100.00;-17125.47;4997704;28;20477;-83
2023/07/16 02:00:44;;;;;;;5.65;2.83;;;;;;;-148.88;100.00;-17125.47;4998127;28;20026;-83
2023/07/16 02:03:09;;;;;;;5.95;2.40;;;;;;;-148.88;100.00;-17125.47;4997029;28;20052;-84
2023/07/16 02:05:35;;;;;;;4.53;2.33;;;;;;;-148.88;100.00;-17125.47;4997880;28;20054;-83
2023/07/16 02:08:00;;;;;;;3.83;2.40;;;;;;;-148.88;100.00;-17125.47;4996323;28;20128;-84
2023/07/16 02:10:25;;;;;;;4.68;2.75;;;;;;;-148.88;100.00;-17125.47;4996566;28;20120;-83
2023/07/16 02:12:51;;;;;;;4.38;2.90;;;;;;;-148.88;100.00;-17125.47;4996928;28;20018;-83
2023/07/16 02:15:17;;;;;;;4.47;2.65;;;;;;;-148.88;100.00;-17125.47;4996052;28;20116;-84
2023/07/16 02:17:43;;;;;;;3.67;2.42;;;;;;;-148.88;100.00;-17125.47;4996283;28;20139;-83
2023/07/16 02:20:10;;;;;;;7.30;2.63;;;;;;;-148.88;100.00;-17125.47;4997841;28;20501;-84
2023/07/16 02:22:36;;;;;;;4.60;2.25;;;;;;;-148.88;100.00;-17125.47;4997364;28;20030;-83
2023/07/16 02:25:02;;;;;;;6.68;2.67;;;;;;;-148.88;100.00;-17125.47;4996600;28;20172;-84
2023/07/16 02:27:28;;;;;;;4.07;2.30;;;;;;;-148.88;100.00;-17125.47;4996810;28;20023;-84
2023/07/16 02:29:53;;;;;;;4.43;2.17;;;;;;;-148.88;100.00;-17125.47;4996085;28;20060;-83
2023/07/16 02:32:18;;;;;;;4.22;2.17;;;;;;;-148.88;100.00;-17125.47;4996146;28;20045;-83
2023/07/16 02:34:44;;;;;;;4.00;2.03;;;;;;;-148.88;100.00;-17125.47;4996496;28;20405;-83
2023/07/16 02:37:09;;;;;;;4.47;2.30;;;;;;;-148.88;100.00;-17125.47;4996065;28;20469;-84
2023/07/16 02:39:34;;;;;;;4.63;2.47;;;;;;;-148.88;100.00;-17125.47;4997034;28;20041;-83
2023/07/16 02:42:00;;;;;;;4.75;2.30;;;;;;;-148.88;100.00;-17125.47;4995628;28;20029;-83
2023/07/16 02:44:25;;;;;;;4.95;2.38;;;;;;;-148.88;100.00;-17125.47;4995651;28;20037;-83
2023/07/16 02:46:51;;;;;;;5.18;2.20;;;;;;;-148.88;100.00;-17125.47;4996700;28;20114;-82
2023/07/16 02:49:16;;;;;;;4.70;2.45;;;;;;;-148.88;100.00;-17125.47;4994499;28;20430;-83
2023/07/16 02:51:42;;;;;;;5.15;2.63;;;;;;;-148.88;100.00;-17125.47;4997931;28;20093;-83
2023/07/16 02:54:07;;;;;;;4.72;2.58;;;;;;;-148.88;100.00;-17125.47;4996797;28;20053;-83
2023/07/16 02:56:33;;;;;;;6.25;2.70;;;;;;;-148.88;100.00;-17125.47;4999645;28;20022;-84
2023/07/16 02:58:59;;;;;;;4.70;2.53;;;;;;;-148.88;100.00;-17125.47;4996801;28;20129;-83
2023/07/16 03:01:24;;;;;;;5.00;2.60;;;;;;;-148.88;100.00;-17125.47;4996351;28;20176;-83
2023/07/16 03:03:49;;;;;;;5.20;2.40;;;;;;;-148.88;100.00;-17125.47;4994749;28;20026;-83
2023/07/16 03:06:14;;;;;;;5.38;2.78;;;;;;;-148.88;100.00;-17125.47;4994986;28;20026;-84
2023/07/16 03:08:40;;;;;;;4.20;2.35;;;;;;;-148.88;100.00;-17125.47;4996840;28;20076;-84
2023/07/16 03:11:05;;;;;;;4.22;2.40;;;;;;;-148.88;100.00;-17125.47;4994987;28;20047;-84
2023/07/16 03:13:31;;;;;;;5.50;2.47;;;;;;;-148.88;100.00;-17125.47;4995177;28;20101;-84
2023/07/16 03:15:56;;;;;;;4.50;2.22;;;;;;;-148.88;100.00;-17125.47;4995723;28;20496;-84
2023/07/16 03:18:21;;;;;;;4.57;2.58;;;;;;;-148.88;100.00;-17125.47;4995418;28;20034;-84
2023/07/16 03:20:47;;;;;;;4.13;2.35;;;;;;;-148.88;100.00;-17125.47;4995600;28;20101;-84
2023/07/16 03:23:13;;;;;;;5.32;2.50;;;;;;;-148.88;100.00;-17125.47;4994296;28;20144;-83
2023/07/16 03:25:39;;;;;;;8.15;3.33;;;;;;;-148.88;100.00;-17125.47;4996249;28;20101;-84
2023/07/16 03:28:04;;;;;;;5.72;2.80;;;;;;;-148.88;100.00;-17125.47;4995947;28;20050;-84
2023/07/16 03:30:33;;;;;;;4.13;2.60;;;;;;;-148.88;100.00;-17125.47;5000638;28;20065;-84
2023/07/16 03:32:58;;;;;;;5.25;2.35;;;;;;;-148.88;100.00;-17125.47;5000587;28;20052;-84
2023/07/16 03:35:23;;;;;;;6.30;2.95;;;;;;;-148.88;100.00;-17125.47;5000677;28;20022;-83
2023/07/16 03:37:49;;;;;;;3.75;2.33;;;;;;;-148.88;100.00;-17125.47;4999456;28;20018;-84
2023/07/16 03:40:17;;;;;;;5.03;2.50;;;;;;;-148.88;100.00;-17125.47;5001444;28;20027;-84
2023/07/16 03:42:43;;;;;;;6.90;2.50;;;;;;;-148.88;100.00;-17125.47;4997919;28;20030;-83
2023/07/16 03:45:10;;;;;;;5.13;2.85;;;;;;;-148.88;100.00;-17125.47;5000426;28;20026;-84
2023/07/16 03:47:36;;;;;;;5.97;2.72;;;;;;;-148.88;100.00;-17125.47;4994532;28;20449;-81
2023/07/16 03:50:01;;;;;;;4.57;2.83;;;;;;;-148.88;100.00;-17125.47;5000604;28;20026;-83
2023/07/16 03:52:28;;;;;;;5.90;3.03;;;;;;;-148.88;100.00;-17125.47;5011702;28;20037;-83
2023/07/16 03:54:54;;;;;;;5.22;3.30;;;;;;;-148.88;100.00;-17125.47;5008487;28;20034;-83
2023/07/16 03:57:22;;;;;;;5.70;3.20;;;;;;;-148.88;100.00;-17125.47;5011307;28;20430;-85
2023/07/16 03:59:47;;;;;;;5.15;3.55;;;;;;;-148.88;100.00;-17125.47;5005606;28;20483;-84
2023/07/16 04:02:13;;;;;;;6.53;4.10;;;;;;;-148.88;100.00;-17125.47;5006582;28;20069;-84
2023/07/16 04:04:38;;;;;;;7.28;4.07;;;;;;;-148.88;100.00;-17125.47;5003916;28;20030;-84
2023/07/16 04:07:03;;;;;;;7.53;4.40;;;;;;;-148.88;100.00;-17125.47;5004507;28;20026;-84
2023/07/16 04:09:29;;;;;;;5.72;4.28;;;;;;;-148.88;100.00;-17125.47;5002813;28;20018;-84
2023/07/16 04:11:54;;;;;;;7.63;4.65;;;;;;;-148.88;100.00;-17125.47;5003862;28;20018;-83
2023/07/16 04:14:19;;;;;;;7.00;4.30;;;;;;;-148.88;100.00;-17125.47;5002122;28;20022;-83
2023/07/16 04:16:45;;;;;;;11.95;4.55;;;;;;;-148.88;100.00;-17125.47;5003318;28;20022;-83
2023/07/16 04:19:10;;;;;;;7.38;4.47;;;;;;;-148.88;100.00;-17125.47;5003295;28;20173;-84
2023/07/16 04:21:36;;;;;;;6.32;4.15;;;;;;;-148.88;100.00;-17125.47;5001489;28;20466;-84
2023/07/16 04:24:05;;;;;;;8.48;4.78;;;;;;;-148.88;100.00;-17125.47;4999842;28;20030;-84
2023/07/16 04:26:30;;;;;;;8.98;4.10;;;;;;;-148.88;100.00;-17125.47;4996429;28;20489;-82
2023/07/16 04:28:56;;;;;;;7.25;3.88;;;;;;;-148.88;100.00;-17125.47;5001961;28;20022;-82
2023/07/16 04:31:21;;;;;;;7.00;4.15;;;;;;;-148.88;100.00;-17125.47;5001930;28;20084;-83
2023/07/16 04:33:46;;;;;;;5.45;3.85;;;;;;;-148.88;100.00;-17125.47;5001923;28;20524;-83
2023/07/16 04:36:12;;;;;;;6.50;4.00;;;;;;;-148.88;100.00;-17125.47;5001378;28;20054;-83
2023/07/16 04:38:37;;;;;;;7.35;3.95;;;;;;;-148.88;100.00;-17125.47;5000842;28;20026;-84
2023/07/16 04:41:03;;;;;;;4.88;3.50;;;;;;;-148.88;100.00;-17125.47;5002495;28;20034;-83
2023/07/16 04:43:28;;;;;;;9.07;3.67;;;;;;;-148.88;100.00;-17125.47;5001995;28;20117;-82
2023/07/16 04:45:53;;;;;;;6.57;3.20;;;;;;;-148.88;100.00;-17125.47;5000994;28;20109;-83
2023/07/16 04:48:19;;;;;;;4.63;2.95;;;;;;;-148.88;100.00;-17125.47;5002720;28;20034;-84
2023/07/16 04:50:44;;;;;;;5.57;3.13;;;;;;;-148.88;100.00;-17125.47;5001522;28;20023;-82
2023/07/16 04:53:10;;;;;;;7.90;3.80;;;;;;;-148.88;100.00;-17125.47;5001379;28;20026;-83
2023/07/16 04:55:41;;;;;;;6.07;3.30;;;;;;;-148.88;100.00;-17125.47;5002889;28;20523;-83
2023/07/16 04:58:07;;;;;;;6.50;3.10;;;;;;;-148.88;100.00;-17125.47;5001930;28;20027;-82
2023/07/16 05:00:33;;;;;;;7.25;3.20;;;;;;;-148.88;100.00;-17125.47;5000377;28;20022;-83
2023/07/16 05:02:58;;;;;;;5.28;3.25;;;;;;;-148.88;100.00;-17125.47;4996918;28;20026;-82
2023/07/16 05:05:24;;;;;;;5.30;2.90;;;;;;;-148.88;100.00;-17125.47;4996915;28;20400;-82
2023/07/16 05:07:49;;;;;;;6.00;3.13;;;;;;;-148.88;100.00;-17125.47;5000092;28;20440;-82
2023/07/16 05:10:14;;;;;;;5.82;2.90;;;;;;;-148.88;100.00;-17125.47;5000286;28;20054;-82
2023/07/16 05:12:40;;;;;;;7.28;2.88;;;;;;;-148.88;100.00;-17125.47;5000044;28;20411;-84
2023/07/16 05:15:08;;;;;;;4.95;2.75;;;;;;;-148.88;100.00;-17125.47;5000533;28;20022;-82
2023/07/16 05:17:34;;;;;;;6.10;2.90;;;;;;;-148.88;100.00;-17125.47;5002604;28;20038;-82
2023/07/16 05:19:59;;;;;;;5.10;2.50;;;;;;;-148.88;100.00;-17125.47;5000485;28;20022;-83
2023/07/16 05:22:24;;;;;;;6.45;2.85;;;;;;;-148.88;100.00;-17125.47;5004717;28;20022;-84
2023/07/16 05:24:50;;;;;;;7.25;2.90;;;;;;;-148.88;100.00;-17125.47;5006174;28;20478;-83
2023/07/16 05:27:15;;;;;;;6.78;2.50;;;;;;;-148.88;100.00;-17125.47;5005944;28;20485;-84
2023/07/16 05:29:41;;;;;;;6.72;2.80;;;;;;;-148.88;100.00;-17125.47;5006528;28;20118;-83
2023/07/16 05:32:06;;;;;;;5.55;2.13;;;;;;;-148.88;100.00;-17125.47;5004609;28;20088;-84
2023/07/16 05:34:32;;;;;;;4.93;2.30;;;;;;;-148.88;100.00;-17125.47;5005754;28;20049;-84
2023/07/16 05:36:58;;;;;;;8.10;2.45;;;;;;;-148.88;100.00;-17125.47;5004274;28;20058;-82
2023/07/16 05:39:23;;;;;;;4.82;2.30;;;;;;;-148.88;100.00;-17125.47;5003797;28;20391;-84
2023/07/16 05:41:48;;;;;;;5.85;2.20;;;;;;;-148.88;100.00;-17125.47;4998233;28;20026;-83
2023/07/16 05:44:14;;;;;;;5.88;2.47;;;;;;;-148.88;100.00;-17125.47;4999570;28;20026;-82
2023/07/16 05:46:39;;;;;;;5.70;2.10;;;;;;;-148.88;100.00;-17125.47;5002013;28;20045;-83
2023/07/16 05:49:04;;;;;;;5.75;2.45;;;;;;;-148.88;99.28;-17125.47;5000922;28;20109;-83
2023/07/16 05:51:30;;;;;;;4.55;2.28;;;;;;;-148.88;98.32;-17125.47;5001630;28;20096;-83
2023/07/16 05:53:55;;;;;;;6.00;2.33;;;;;;;-148.88;96.81;-17125.47;5003038;28;20060;-83
2023/07/16 05:56:20;;;;;;;6.28;2.60;;;;;;;-148.88;94.82;-17125.47;5003402;28;20090;-82
2023/07/16 05:58:46;;;;;;;5.03;2.22;;;;;;;-148.88;94.08;-17125.47;5002296;28;20022;-83
2023/07/16 06:01:11;;;;;;;5.68;2.60;;;;;;;-148.88;90.58;-17125.47;5001691;28;20018;-80
2023/07/16 06:03:36;;;;;;;4.75;2.65;;;;;;;-148.88;90.60;-17125.47;5006291;28;20397;-83
2023/07/16 06:06:02;;;;;;;4.78;2.40;;;;;;;-148.88;90.94;-17125.47;5005830;28;20077;-84
2023/07/16 06:08:27;;;;;;;4.75;2.88;;;;;;;-148.88;89.82;-17125.47;5002280;28;20056;-82
2023/07/16 06:10:53;;;;;;;5.50;2.65;;;;;;;-148.88;88.23;-17125.47;5004821;28;20477;-83
2023/07/16 06:13:18;;;;;;;6.35;3.00;;;;;;;-148.88;88.69;-17125.47;5005243;28;20061;-84
2023/07/16 06:15:43;;;;;;;7.47;3.00;;;;;;;-148.88;83.63;-17125.47;5001688;28;20106;-83
2023/07/16 06:18:09;;;;;;;8.05;3.17;;;;;;;-148.88;80.71;-17125.47;5002768;28;20034;-83
2023/07/16 06:20:35;;;;;;;8.25;3.38;;;;;;;-148.88;82.52;-17125.47;4995828;28;20081;-85
2023/07/16 06:23:00;;;;;;;8.02;3.13;;;;;;;-148.88;81.76;-17125.47;4997325;28;20029;-85
2023/07/16 06:25:25;;;;;;;7.40;3.08;;;;;;;-148.88;80.26;-17125.47;4995423;28;20343;-87
2023/07/16 06:27:51;;;;;;;6.07;2.92;;;;;;;-148.88;78.76;-17125.47;4995398;28;20393;-86
2023/07/16 06:30:16;;;;;;;9.23;2.88;;;;;;;-148.88;78.47;-17125.47;4995826;28;20073;-85
2023/07/16 06:32:41;;;;;;;6.35;3.08;;;;;;;-148.88;79.06;-17125.47;4995033;28;20072;-86
2023/07/16 06:35:08;;;;;;;8.85;3.30;;;;;;;-148.88;79.00;-17125.47;4996457;28;20037;-86
2023/07/16 06:37:33;;;;;;;7.15;3.05;;;;;;;-148.88;77.61;-17125.47;4995473;28;20117;-85
2023/07/16 06:39:59;;;;;;;5.55;3.65;;;;;;;-148.88;77.91;-17125.47;4996475;28;20061;-87
2023/07/16 06:42:24;;;;;;;7.20;3.22;;;;;;;-148.88;77.33;-17125.47;4995355;28;20030;-87
2023/07/16 06:44:49;;;;;;;7.70;3.63;;;;;;;-148.88;74.58;-17125.47;4996039;28;20022;-86
2023/07/16 06:47:15;;;;;;;8.75;3.70;;;;;;;-148.88;73.79;-17125.47;4997365;28;20057;-83
2023/07/16 06:49:40;;;;;;;6.55;3.58;;;;;;;-148.88;73.69;-17125.47;5000818;28;20032;-83
2023/07/16 06:52:06;;;;;;;7.18;3.58;;;;;;;-148.88;73.43;-17125.47;5003831;28;20022;-82
2023/07/16 06:54:31;;;;;;;6.40;3.72;;;;;;;-148.88;73.61;-17125.47;5004404;28;20034;-84
2023/07/16 06:56:57;;;;;;;8.27;4.05;;;;;;;-148.88;74.95;-17125.47;4998660;28;20026;-82
2023/07/16 06:59:22;;;;;;;7.93;3.90;;;;;;;-148.88;70.80;-17125.47;4996545;28;20112;-83
2023/07/16 07:01:47;;;;;;;9.20;3.60;;;;;;;-148.88;70.90;-17125.47;4999492;28;20024;-82
2023/07/16 07:04:13;;;;;;;8.13;3.80;;;;;;;-148.88;70.63;-17125.47;4999246;28;20040;-83
2023/07/16 07:06:38;;;;;;;7.43;3.35;;;;;;;-148.88;70.20;-17125.47;4998665;28;20500;-83
2023/07/16 07:09:03;;;;;;;8.40;3.85;;;;;;;-148.88;72.60;-17125.47;4998634;28;20041;-84
2023/07/16 07:11:29;;;;;;;6.60;3.75;;;;;;;-148.88;71.02;-17125.47;4998243;28;20117;-84
2023/07/16 07:13:55;;;;;;;7.05;3.80;;;;;;;-148.88;71.82;-17125.47;4997801;28;20513;-85
2023/07/16 07:16:20;;;;;;;6.43;3.53;;;;;;;-148.88;69.31;-17125.47;4997264;28;20026;-84
2023/07/16 07:18:45;;;;;;;6.80;3.70;;;;;;;-148.88;70.39;-17125.47;5000312;28;20026;-84
2023/07/16 07:21:11;;;;;;;8.43;3.63;;;;;;;-148.88;68.36;-17125.47;5000447;28;20026;-83
2023/07/16 07:23:36;;;;;;;12.48;3.80;;;;;;;-148.88;69.16;-17125.47;4997409;28;20027;-84
2023/07/16 07:26:01;;;;;;;9.98;3.72;;;;;;;-148.88;69.87;-17125.47;5000086;28;20128;-84
2023/07/16 07:28:27;;;;;;;10.75;4.40;;;;;;;-148.88;70.85;-17125.47;4998583;28;20082;-84
2023/07/16 07:30:52;;;;;;;9.00;3.88;;;;;;;-148.88;67.83;-17125.47;4996503;28;20113;-85
2023/07/16 07:33:18;;;;;;;7.72;3.72;;;;;;;-148.88;67.31;-17125.47;4995993;28;20110;-85
2023/07/16 07:35:43;;;;;;;7.47;3.97;;;;;;;-148.88;66.96;-17125.47;4995028;28;20041;-85
2023/07/16 07:38:08;;;;;;;8.55;3.95;;;;;;;-148.88;66.65;-17125.47;4994084;28;20061;-86
2023/07/16 07:40:34;;;;;;;9.27;4.03;;;;;;;-148.88;67.31;-17125.47;4995630;28;20026;-85
2023/07/16 07:42:59;;;;;;;9.43;4.38;;;;;;;-148.88;66.73;-17125.47;4996109;28;20477;-84
2023/07/16 07:45:25;;;;;;;8.35;4.20;;;;;;;-148.88;66.96;-17125.47;4996747;28;20390;-84
2023/07/16 07:47:51;;;;;;;8.82;4.22;;;;;;;-148.88;66.42;-17125.47;4996982;28;20553;-83
2023/07/16 07:50:16;;;;;;;9.10;3.80;;;;;;;-148.88;65.99;-17125.47;4998318;28;20080;-84
2023/07/16 07:52:44;;;;;;;13.85;4.28;;;;;;;-148.88;65.24;-17125.47;4997995;28;20037;-84
2023/07/16 07:55:09;;;;;;;7.65;3.95;;;;;;;-148.88;65.90;-17125.47;4997637;28;20030;-85
2023/07/16 07:57:35;;;;;;;6.70;3.70;;;;;;;-148.88;62.80;-17125.47;4997075;28;20033;-84
2023/07/16 08:00:00;;;;;;;9.25;3.60;;;;;;;-148.88;64.33;-17125.47;4996440;28;20026;-85
2023/07/16 08:02:26;;;;;;;9.18;3.92;;;;;;;-148.88;62.62;-17125.47;4995835;28;20076;-85
2023/07/16 08:04:54;;;;;;;10.32;4.05;;;;;;;-148.88;61.01;-17125.47;4996453;28;20077;-85
2023/07/16 08:07:19;;;;;;;8.75;3.72;;;;;;;-148.88;60.79;-17125.47;4997800;28;20450;-85
2023/07/16 08:09:46;;;;;;;7.30;3.97;;;;;;;-148.88;59.71;-17125.47;4998188;28;20027;-84
2023/07/16 08:12:11;;;;;;;7.22;3.33;;;;;;;-148.88;58.46;-17125.47;4998614;28;20053;-86
2023/07/16 08:14:37;;;;;;;8.40;4.35;;;;;;;-148.88;58.85;-17125.47;4995129;28;20037;-85
2023/07/16 08:17:02;;;;;;;7.25;3.85;;;;;;;-148.88;60.44;-17125.47;4995187;28;20026;-83
2023/07/16 08:19:28;;;;;;;9.38;3.67;;;;;;;-148.88;58.80;-17125.47;4996345;28;20027;-84
2023/07/16 08:21:53;;;;;;;9.35;3.88;;;;;;;-148.88;60.13;-17125.47;4997215;28;20050;-84
2023/07/16 08:24:18;;;;;;;7.97;3.85;;;;;;;-148.88;61.54;-17125.47;4995316;28;20030;-83
2023/07/16 08:26:44;;;;;;;7.90;3.50;;;;;;;-148.88;58.92;-17125.47;4997330;28;20030;-84
2023/07/16 08:29:09;;;;;;;6.65;3.97;;;;;;;-148.88;57.87;-17125.47;4997453;28;20039;-84
2023/07/16 08:31:35;;;;;;;7.13;3.78;;;;;;;-148.88;58.20;-17125.47;4998963;28;20029;-84
2023/07/16 08:34:00;;;;;;;9.70;4.00;;;;;;;-148.88;59.48;-17125.47;4995288;28;20058;-84
2023/07/16 08:36:26;;;;;;;8.18;4.07;;;;;;;-148.88;59.87;-17125.47;4994777;28;20030;-85
2023/07/16 08:38:51;;;;;;;9.73;3.75;;;;;;;-148.88;61.54;-17125.47;4997078;28;20081;-85
2023/07/16 08:41:17;;;;;;;9.57;3.85;;;;;;;-148.88;59.37;-17125.47;4995224;28;20077;-85
2023/07/16 08:43:47;;;;;;;8.90;3.83;;;;;;;-148.88;59.01;-17125.47;4994563;28;20026;-85
2023/07/16 08:46:13;;;;;;;8.60;3.55;;;;;;;-148.88;57.05;-17125.47;4995665;28;20029;-84
2023/07/16 08:48:38;;;;;;;5.82;3.40;;;;;;;-148.88;57.60;-17125.47;4996478;28;20076;-85
2023/07/16 08:51:05;;;;;;;9.57;3.47;;;;;;;-148.88;60.49;-17125.47;4995254;28;20030;-84
2023/07/16 08:53:31;;;;;;;7.07;3.13;;;;;;;-148.88;58.68;-17125.47;4995214;28;20029;-83
2023/07/16 08:55:57;;;;;;;8.88;3.90;;;;;;;-148.88;57.91;-17125.47;4998382;28;20023;-83
2023/07/16 08:58:23;;;;;;;7.60;3.72;;;;;;;-148.88;58.39;-17125.47;5001328;28;20030;-84
2023/07/16 09:00:49;;;;;;;5.80;3.55;;;;;;;-148.88;56.96;-17125.47;5003737;28;20026;-83
2023/07/16 09:03:16;;;;;;;6.28;3.17;;;;;;;-148.88;57.77;-17125.47;5001939;28;20462;-85
2023/07/16 09:05:42;;;;;;;8.77;3.70;;;;;;;-148.88;57.63;-17125.47;5001691;28;20025;-84
2023/07/16 09:08:07;;;;;;;5.13;3.17;;;;;;;-148.88;58.79;-17125.47;5001176;28;20034;-84
2023/07/16 09:10:33;;;;;;;6.38;3.65;;;;;;;-148.88;58.09;-17125.47;5002478;28;20080;-85
2023/07/16 09:12:59;;;;;;;7.07;3.45;;;;;;;-148.88;58.42;-17125.47;5002992;28;20023;-85
2023/07/16 09:15:24;;;;;;;5.45;3.17;;;;;;;-148.88;58.20;-17125.47;5002991;28;20105;-85
2023/07/16 09:17:50;;;;;;;7.00;3.58;;;;;;;-148.88;58.84;-17125.47;5003600;28;20174;-85
2023/07/16 09:20:16;;;;;;;6.45;3.40;;;;;;;-148.88;59.30;-17125.47;5004546;28;20473;-84
2023/07/16 09:22:43;;;;;;;6.47;3.40;;;;;;;-148.88;57.01;-17125.47;5004743;28;20033;-85
2023/07/16 09:25:09;;;;;;;6.53;3.33;;;;;;;-148.88;57.88;-17125.47;5005082;28;20026;-85
2023/07/16 09:27:34;;;;;;;9.55;3.90;;;;;;;-148.88;59.97;-17125.47;5004614;28;20167;-85
2023/07/16 09:30:02;;;;;;;6.75;3.30;;;;;;;-148.88;59.00;-17125.47;5002235;28;20053;-86
2023/07/16 09:32:40;;;;;;;6.97;3.50;;;;;;;-148.88;57.18;-17125.47;5001675;28;20393;-85
2023/07/16 09:35:15;;;;;;;8.13;3.42;;;;;;;-148.88;58.35;-17125.47;5002062;28;20026;-85
2023/07/16 09:37:41;;;;;;;6.72;3.60;;;;;;;-148.88;58.93;-17125.47;4998622;28;20370;-84
2023/07/16 09:40:09;;;;;;;6.72;3.63;;;;;;;-148.88;57.36;-17125.47;4998697;28;20077;-84
2023/07/16 09:42:39;;;;;;;8.50;3.63;;;;;;;-148.88;55.56;-17125.47;5000057;28;20034;-85
2023/07/16 09:45:18;;;;;;;6.80;3.85;;;;;;;-148.88;55.91;-17125.47;5000141;28;20489;-85
2023/07/16 09:47:44;;;;;;;9.45;3.45;;;;;;;-148.88;55.38;-17125.47;4998894;28;20030;-85
2023/07/16 09:50:11;;;;;;;6.88;3.42;;;;;;;-148.88;54.52;-17125.47;4998430;28;20552;-85
2023/07/16 09:52:37;;;;;;;9.20;3.60;;;;;;;-148.88;54.37;-17125.47;4998002;28;20018;-85
2023/07/16 09:55:03;;;;;;;6.97;3.30;;;;;;;-148.88;54.89;-17125.47;5000564;28;20512;-85
2023/07/16 09:57:34;;;;;;;6.03;3.33;;;;;;;-148.88;53.23;-17125.47;4999378;28;20029;-84
2023/07/16 10:00:04;;;;;;;5.55;3.30;;;;;;;-148.88;51.88;-17125.47;5000323;28;20023;-84
2023/07/16 10:02:33;;;;;;;8.48;3.40;;;;;;;-148.88;53.01;-17125.47;4999922;28;20065;-84
2023/07/16 10:04:59;;;;;;;6.45;3.30;;;;;;;-148.88;52.05;-17125.47;5000983;28;20031;-83
2023/07/16 10:07:26;;;;;;;6.93;2.92;;;;;;;-148.88;51.16;-17125.47;4995644;28;20161;-84
2023/07/16 10:09:57;;;;;;;6.40;3.40;;;;;;;-148.88;50.71;-17125.47;4999153;28;20029;-81
2023/07/16 10:12:24;;;;;;;6.50;3.30;;;;;;;-148.88;49.85;-17125.47;5003193;28;20022;-81
2023/07/16 10:14:52;;;;;;;4.45;3.30;;;;;;;-148.88;49.84;-17125.47;5004665;28;20054;-82
2023/07/16 10:17:20;;;;;;;7.63;2.90;;;;;;;-148.88;47.78;-17125.47;5007674;28;20018;-82
2023/07/16 10:20:07;;;;;;;6.60;3.10;;;;;;;-148.88;49.78;-17125.47;5008126;28;20022;-81
2023/07/16 10:22:37;;;;;;;5.93;3.15;;;;;;;-148.88;49.80;-17125.47;5007309;28;20489;-83
2023/07/16 10:25:17;;;;;;;5.35;3.10;;;;;;;-148.88;47.77;-17125.47;5007936;28;20504;-82
2023/07/16 10:27:44;;;;;;;6.40;3.08;;;;;;;-148.88;46.37;-17125.47;5007307;28;20058;-84
2023/07/16 10:30:10;;;;;;;5.88;2.80;;;;;;;-148.88;48.31;-17125.47;5005077;28;20114;-83
2023/07/16 10:32:35;;;;;;;7.20;2.90;;;;;;;-148.88;48.35;-17125.47;5004825;28;20018;-84
2023/07/16 10:35:02;;;;;;;6.15;2.90;;;;;;;-148.88;47.89;-17125.47;5007276;28;20046;-82
2023/07/16 10:37:28;;;;;;;5.63;3.10;;;;;;;-148.88;46.52;-17125.47;5008202;28;20465;-83
2023/07/16 10:39:55;;;;;;;4.63;2.75;;;;;;;-148.88;47.10;-17125.47;5008261;28;20502;-82
2023/07/16 10:42:23;;;;;;;5.53;3.00;;;;;;;-148.88;46.28;-17125.47;5006354;28;20029;-82
2023/07/16 10:44:52;;;;;;;5.95;2.85;;;;;;;-148.88;46.01;-17125.47;5005896;28;20116;-83
2023/07/16 10:47:24;;;;;;;6.53;2.78;;;;;;;-148.88;45.42;-17125.47;4998297;28;20073;-81
2023/07/16 10:49:54;;;;;;;6.00;2.83;;;;;;;-148.88;45.26;-17125.47;5002991;28;20062;-82
2023/07/16 10:52:23;;;;;;;6.18;3.10;;;;;;;-148.88;45.72;-17125.47;5003607;28;20089;-82
2023/07/16 10:54:51;;;;;;;6.15;2.80;;;;;;;-148.88;45.88;-17125.47;5004332;28;20026;-82
2023/07/16 10:57:19;;;;;;;5.65;3.10;;;;;;;-148.88;46.09;-17125.47;5002851;28;20022;-81
2023/07/16 10:59:45;;;;;;;5.45;2.95;;;;;;;-148.88;45.73;-17125.47;5003819;28;20030;-82